Time;durP1;ratioP1;P1;durP2;ratioP2;P2;SDS_P1;SDS_P2;PMS_P1;PMS_P2;Temp;Humidity;BMP_temperature;BMP_pressure;BME280_temperature;BME280_humidity;BME280_pressure;Samples;Min_cycle;Max_cycle;Signal;HPM_P1;HPM_P2
2022/12/16 00:01:21;;;;;;;67.75;32.33;;;-3.20;99.90;;;;;;4996689;28;20524;-85
2022/12/16 00:03:53;;;;;;;63.13;28.50;;;-3.30;99.90;;;;;;4983740;28;20190;-86
2022/12/16 00:06:19;;;;;;;64.82;28.88;;;-3.30;99.90;;;;;;4999916;28;20231;-86
2022/12/16 00:08:45;;;;;;;69.78;35.67;;;-3.30;99.90;;;;;;4997905;28;20825;-86
2022/12/16 00:11:12;;;;;;;62.67;31.03;;;-3.30;99.90;;;;;;4981867;28;20195;-87
2022/12/16 00:13:42;;;;;;;67.03;32.40;;;-3.20;1.00;;;;;;5000852;28;20502;-88
2022/12/16 00:16:18;;;;;;;61.00;28.52;;;-3.20;99.90;;;;;;4987822;28;20199;-86
2022/12/16 00:18:45;;;;;;;49.22;26.83;;;-3.20;99.90;;;;;;4996271;28;20179;-87
2022/12/16 00:21:11;;;;;;;58.20;28.48;;;-3.20;99.90;;;;;;5002274;28;20176;-86
2022/12/16 00:23:43;;;;;;;58.08;27.55;;;-3.20;99.90;;;;;;5001922;28;20187;-87
2022/12/16 00:26:10;;;;;;;63.40;28.48;;;-3.20;99.90;;;;;;5002228;28;20764;-86
2022/12/16 00:28:36;;;;;;;66.18;28.40;;;-3.30;99.90;;;;;;5001480;28;20207;-85
2022/12/16 00:31:02;;;;;;;59.83;29.30;;;-3.30;99.90;;;;;;4987887;28;20180;-87
2022/12/16 00:33:27;;;;;;;69.10;29.20;;;-3.30;99.90;;;;;;4997901;28;20180;-86
2022/12/16 00:35:54;;;;;;;62.47;30.77;;;-3.30;99.90;;;;;;4996684;28;20183;-85
2022/12/16 00:38:20;;;;;;;72.60;31.30;;;-3.40;99.90;;;;;;4990908;28;20191;-85
2022/12/16 00:40:45;;;;;;;67.88;29.83;;;-3.40;99.90;;;;;;5002738;28;20252;-85
2022/12/16 00:43:11;;;;;;;69.97;29.77;;;-3.40;99.90;;;;;;4999938;28;20211;-87
2022/12/16 00:45:38;;;;;;;62.47;29.30;;;-3.40;99.90;;;;;;4999856;28;20180;-85
2022/12/16 00:48:04;;;;;;;58.38;27.25;;;-3.40;99.90;;;;;;5002690;28;20576;-86
2022/12/16 00:50:30;;;;;;;51.05;24.90;;;-3.40;99.90;;;;;;5001544;28;20224;-87
2022/12/16 00:52:55;;;;;;;60.50;29.13;;;-3.40;99.90;;;;;;5003354;28;20184;-86
2022/12/16 00:55:21;;;;;;;49.37;26.77;;;-3.40;99.90;;;;;;5005987;28;20215;-87
2022/12/16 00:57:47;;;;;;;53.57;25.83;;;-3.40;99.90;;;;;;4981688;28;20494;-86
2022/12/16 01:00:15;;;;;;;54.57;28.00;;;-3.40;99.90;;;;;;4997515;28;20477;-88
2022/12/16 01:02:46;;;;;;;56.05;27.70;;;-3.50;99.90;;;;;;4997156;28;20180;-88
2022/12/16 01:05:14;;;;;;;58.85;26.25;;;-3.50;99.90;;;;;;4998289;28;20599;-85
2022/12/16 01:07:40;;;;;;;58.00;27.33;;;-3.50;99.90;;;;;;4996486;28;20282;-86
2022/12/16 01:10:07;;;;;;;63.13;27.77;;;-3.50;99.90;;;;;;4996722;28;20234;-86
2022/12/16 01:12:34;;;;;;;50.13;26.15;;;-3.50;99.90;;;;;;4982847;28;20474;-86
2022/12/16 01:15:00;;;;;;;57.33;27.08;;;-3.50;99.90;;;;;;4995258;28;20547;-86
2022/12/16 01:17:26;;;;;;;60.97;24.70;;;-3.50;99.90;;;;;;4987707;28;20291;-87
2022/12/16 01:19:52;;;;;;;54.20;24.50;;;-3.60;99.90;;;;;;4981689;28;20187;-87
2022/12/16 01:22:19;;;;;;;46.80;25.47;;;-3.60;99.90;;;;;;4999005;28;20179;-88
2022/12/16 01:24:45;;;;;;;52.47;29.30;;;-3.60;99.90;;;;;;4997695;28;20499;-87
2022/12/16 01:27:11;;;;;;;56.50;23.63;;;-3.60;99.90;;;;;;4998397;28;20630;-86
2022/12/16 01:29:36;;;;;;;40.45;23.17;;;-3.60;99.90;;;;;;5002776;28;20183;-87
2022/12/16 01:32:03;;;;;;;49.67;23.23;;;-3.60;99.90;;;;;;4995111;28;20241;-87
2022/12/16 01:34:28;;;;;;;49.58;24.58;;;-3.60;99.90;;;;;;4997177;28;20598;-88
2022/12/16 01:36:54;;;;;;;51.73;25.37;;;-3.60;99.90;;;;;;4998613;28;20282;-86
2022/12/16 01:39:19;;;;;;;48.70;24.00;;;-3.60;99.90;;;;;;4992923;28;20274;-88
2022/12/16 01:41:45;;;;;;;58.13;25.67;;;-3.50;99.90;;;;;;5000192;28;20652;-86
2022/12/16 01:44:25;;;;;;;48.30;26.53;;;-3.50;99.90;;;;;;4996392;28;20194;-87
2022/12/16 01:46:55;;;;;;;49.88;26.05;;;-3.50;99.90;;;;;;4995448;28;20273;-86
2022/12/16 01:49:32;;;;;;;56.08;26.50;;;-3.50;99.90;;;;;;4992296;28;20172;-86
2022/12/16 01:52:03;;;;;;;60.60;27.65;;;-3.50;99.90;;;;;;4994867;28;20317;-88
2022/12/16 01:54:34;;;;;;;55.45;26.38;;;-3.60;99.90;;;;;;4998410;28;20257;-88
2022/12/16 01:57:10;;;;;;;59.17;26.45;;;-3.60;99.90;;;;;;4981064;28;20204;-88
2022/12/16 01:59:40;;;;;;;49.95;26.00;;;-3.60;99.90;;;;;;4997264;28;20198;-87
2022/12/16 02:02:06;;;;;;;50.17;24.05;;;-3.60;99.90;;;;;;5004674;28;20240;-86
2022/12/16 02:04:32;;;;;;;52.78;28.70;;;-3.70;99.90;;;;;;4984758;28;20184;-86
2022/12/16 02:06:58;;;;;;;53.57;25.30;;;-3.70;99.90;;;;;;4998125;28;20281;-86
2022/12/16 02:09:24;;;;;;;55.60;25.67;;;-3.70;99.90;;;;;;4998288;28;20187;-86
2022/12/16 02:12:19;;;;;;;57.13;26.50;;;-3.80;99.90;;;;;;4997384;28;20190;-86
2022/12/16 02:15:05;;;;;;;63.30;24.58;;;-3.80;99.90;;;;;;4992981;28;20210;-86
2022/12/16 02:18:05;;;;;;;54.28;25.20;;;-3.80;99.90;;;;;;4993614;28;20270;-86
2022/12/16 02:20:43;;;;;;;57.47;26.20;;;-3.80;99.90;;;;;;4994681;28;20696;-86
2022/12/16 02:23:45;;;;;;;53.95;24.58;;;-3.80;99.90;;;;;;4995501;28;20258;-86
2022/12/16 02:26:33;;;;;;;56.10;25.33;;;-3.80;99.90;;;;;;4991815;28;20215;-86
2022/12/16 02:29:10;;;;;;;55.92;27.23;;;-3.80;99.90;;;;;;4994371;28;20184;-87
2022/12/16 02:31:58;;;;;;;62.80;27.33;;;-3.90;99.90;;;;;;5006236;28;20180;-88
2022/12/16 02:34:50;;;;;;;55.50;27.27;;;-3.90;99.90;;;;;;4997861;28;20204;-86
2022/12/16 02:37:31;;;;;;;55.03;26.35;;;-3.90;99.90;;;;;;4982168;28;20212;-86
2022/12/16 02:40:02;;;;;;;56.58;25.67;;;-3.90;99.90;;;;;;4983088;28;20186;-88
2022/12/16 02:42:48;;;;;;;55.58;26.60;;;-3.90;99.90;;;;;;4984626;28;20210;-86
2022/12/16 02:45:26;;;;;;;62.22;26.73;;;-3.90;99.90;;;;;;4994881;28;20242;-86
2022/12/16 02:47:51;;;;;;;57.03;26.58;;;-3.90;99.90;;;;;;4977552;28;20245;-87
2022/12/16 02:50:25;;;;;;;63.07;29.03;;;-4.00;99.90;;;;;;4989777;28;20910;-86
2022/12/16 02:52:53;;;;;;;66.93;28.65;;;-4.00;99.90;;;;;;4997415;28;20447;-86
2022/12/16 02:55:20;;;;;;;53.60;29.38;;;-4.00;99.90;;;;;;4978121;28;20212;-87
2022/12/16 02:57:59;;;;;;;72.53;27.63;;;-4.10;99.90;;;;;;4997196;28;20211;-87
2022/12/16 03:00:27;;;;;;;55.78;26.30;;;-4.00;99.90;;;;;;4996135;28;20179;-88
2022/12/16 03:03:05;;;;;;;54.65;28.02;;;-4.00;99.90;;;;;;4991129;28;20246;-86
2022/12/16 03:05:36;;;;;;;59.90;24.52;;;-4.00;99.90;;;;;;4997356;28;20207;-88
2022/12/16 03:08:06;;;;;;;47.78;25.23;;;-4.00;99.90;;;;;;4980417;28;20210;-86
2022/12/16 03:10:42;;;;;;;54.78;25.65;;;-4.00;99.90;;;;;;4993101;28;20184;-86
2022/12/16 03:13:10;;;;;;;54.25;23.05;;;-4.10;99.90;;;;;;4995241;28;20191;-84
2022/12/16 03:15:37;;;;;;;51.78;25.20;;;-4.00;99.90;;;;;;4997122;28;20577;-87
2022/12/16 03:18:06;;;;;;;49.55;24.13;;;-4.00;99.90;;;;;;4981347;28;20205;-86
2022/12/16 03:20:44;;;;;;;48.85;25.27;;;-4.00;99.90;;;;;;4992528;28;20186;-87
2022/12/16 03:23:14;;;;;;;47.53;22.10;;;-4.00;99.90;;;;;;4997754;28;20549;-88
2022/12/16 03:25:44;;;;;;;41.35;21.17;;;-4.00;99.90;;;;;;4995203;28;20204;-86
2022/12/16 03:28:12;;;;;;;45.70;22.00;;;-4.00;99.90;;;;;;4993552;28;20188;-86
2022/12/16 03:30:46;;;;;;;44.15;21.92;;;-3.90;99.90;;;;;;4980114;28;20188;-87
2022/12/16 03:33:25;;;;;;;43.15;22.30;;;-3.90;99.90;;;;;;4979961;28;20196;-86
2022/12/16 03:36:01;;;;;;;41.13;22.85;;;-3.90;99.90;;;;;;4995749;28;20179;-87
2022/12/16 03:38:27;;;;;;;38.55;20.15;;;-3.90;99.90;;;;;;4996003;28;20202;-86
2022/12/16 03:40:54;;;;;;;39.28;19.35;;;-3.90;99.90;;;;;;4982181;28;20180;-86
2022/12/16 03:43:20;;;;;;;40.47;20.65;;;-3.90;99.90;;;;;;4999328;28;20187;-88
2022/12/16 03:45:52;;;;;;;40.08;18.23;;;-4.00;99.90;;;;;;5003305;28;20676;-87
2022/12/16 03:48:23;;;;;;;40.50;18.30;;;-4.00;99.90;;;;;;5000566;28;20190;-87
2022/12/16 03:50:49;;;;;;;35.03;18.25;;;-4.00;99.90;;;;;;4982734;28;20207;-86
2022/12/16 03:53:14;;;;;;;41.93;19.50;;;-4.00;99.90;;;;;;5001553;28;20192;-87
2022/12/16 03:55:40;;;;;;;39.40;18.60;;;-4.00;99.90;;;;;;5000735;28;20706;-88
2022/12/16 03:58:06;;;;;;;42.40;18.83;;;-4.00;99.90;;;;;;5000239;28;20183;-86
2022/12/16 04:00:31;;;;;;;40.13;20.43;;;-4.00;99.90;;;;;;4999758;28;20183;-88
2022/12/16 04:02:57;;;;;;;36.17;19.27;;;-4.00;99.90;;;;;;4983618;28;20443;-87
2022/12/16 04:05:22;;;;;;;45.00;20.70;;;-4.00;99.90;;;;;;4993462;28;20187;-88
2022/12/16 04:07:48;;;;;;;43.27;20.87;;;-4.10;99.90;;;;;;5002244;28;20212;-86
2022/12/16 04:10:14;;;;;;;39.17;18.73;;;-4.10;99.90;;;;;;5003726;28;20195;-85
2022/12/16 04:29:17;;;;;;;36.03;19.42;;;-4.10;99.90;;;;;;5001092;28;20220;-86
2022/12/16 04:31:43;;;;;;;31.93;17.00;;;-4.10;99.90;;;;;;5001657;28;20179;-87
2022/12/16 04:34:28;;;;;;;36.20;17.37;;;-4.10;99.90;;;;;;4996018;28;20215;-86
